« 入間航空祭2017【B.I.編】 入間飛行場 2017/11/3 fri | トップページ | 趣味的航空路誌改訂情報 2017/11/9 thu »

2017/11/08

定点 富山空港 2017/11/8 wed

下り坂のどんより曇り。今にも雨が落ちてきそうな空模様です。

RJNT 072300Z 36004KT 9999 -RA FEW040 BKN060 OVC100 14/12 Q1016

20171108_rjnt_00ja66an

ANA313 RJTT-RJNT JA66AN B737-881

RJNT 080000Z VRB02KT 9999 VCSH FEW040 SCT050 BKN060 14/13 Q1016

20171108_rjnt_01ja66an

20171108_rjnt_02ja66an

ANA316 RJNT-RJTT JA66AN B737-881

RJNT 080100Z 22002KT 9999 VCSH FEW040 SCT050 BKN060 16/14 Q1015

20171108_rjnt_03ja6512

JA6512 AS350B3 AKF

RJNT 080200Z 18005KT 140V210 9999 FEW030 SCT060 BKN070 18/13 Q1015

20171108_rjnt_04ja69an

20171108_rjnt_05ja69an

ANA315 RJTT-RJNT JA69AN B737-881

20171108_rjnt_06b6039

20171108_rjnt_07b6039

CSN613 ZYTL-RJNT B-6039 A319-132

20171108_rjnt_08zekkei

2Fロビーに砂防事務所の紹介パネル。空から見える来たアルプスの絶景パネル。飛行機がB48がなんとも。

20171108_rjnt_09ja6512

JA6512 女史の後姿

20171108_rjnt_10ja024n

JA024N AS350B3 NNK

20171108_rjnt_11ja69an

昼の便でも、お見送りがある

20171108_rjnt_12ja69an

タクシーOKサインが変ったみたい・・

20171108_rjnt_13ja69an

20171108_rjnt_14ja69an

ANA1181 RJNT-RJCC JA69AN B737-881

RJNT 080300Z 17007KT 140V210 9999 FEW040 BKN050 BKN070 19/12 Q1014

20171108_rjnt_15b6039

20171108_rjnt_16b6039

20171108_rjnt_17b6039

CSN614 RJNT-ZYTL B-6039 A319-132

|

« 入間航空祭2017【B.I.編】 入間飛行場 2017/11/3 fri | トップページ | 趣味的航空路誌改訂情報 2017/11/9 thu »

富山空港」カテゴリの記事

コメント

コメントを書く



(ウェブ上には掲載しません)


コメントは記事投稿者が公開するまで表示されません。



トラックバック


この記事へのトラックバック一覧です: 定点 富山空港 2017/11/8 wed:

« 入間航空祭2017【B.I.編】 入間飛行場 2017/11/3 fri | トップページ | 趣味的航空路誌改訂情報 2017/11/9 thu »